createdAt,value
2018-09-03T00:00:56.465Z,4.00
2018-09-03T00:01:56.427Z,3.90
2018-09-03T00:02:56.395Z,4.00
2018-09-03T00:03:56.378Z,4.00
2018-09-03T00:04:56.309Z,4.00
2018-09-03T00:05:56.273Z,4.00
2018-09-03T00:06:56.245Z,4.30
2018-09-03T00:07:56.210Z,4.50
2018-09-03T00:08:56.185Z,4.10
2018-09-03T00:09:56.123Z,4.00
2018-09-03T00:10:56.090Z,4.10
2018-09-03T00:11:56.051Z,4.00
2018-09-03T00:12:56.021Z,4.10
2018-09-03T00:13:55.985Z,4.20
2018-09-03T00:14:55.967Z,4.10
2018-09-03T00:15:55.911Z,4.10
2018-09-03T00:16:55.866Z,4.20
2018-09-03T00:17:55.825Z,4.10
2018-09-03T00:18:55.816Z,4.00
2018-09-03T00:19:55.752Z,4.10
2018-09-03T00:20:55.724Z,4.20
2018-09-03T00:21:55.684Z,4.30
2018-09-03T00:22:55.640Z,4.00
2018-09-03T00:23:55.601Z,4.30
2018-09-03T00:24:55.597Z,4.00
2018-09-03T00:25:55.538Z,4.10
2018-09-03T00:26:55.495Z,4.10
2018-09-03T00:27:55.458Z,4.10
2018-09-03T00:28:55.417Z,4.10
2018-09-03T00:29:55.399Z,3.80
2018-09-03T00:30:55.337Z,4.20
2018-09-03T00:31:55.302Z,4.30
2018-09-03T00:32:55.269Z,4.20
2018-09-03T00:33:55.230Z,4.40
2018-09-03T00:34:55.223Z,4.20
2018-09-03T00:35:55.158Z,4.10
2018-09-03T00:36:55.112Z,4.50
2018-09-03T00:37:55.071Z,4.40
2018-09-03T00:38:55.044Z,4.30
2018-09-03T00:39:55.006Z,4.50
2018-09-03T00:40:54.981Z,4.60
2018-09-03T00:41:54.921Z,4.30
2018-09-03T00:42:54.885Z,4.30
2018-09-03T00:43:54.847Z,4.30
2018-09-03T00:44:54.813Z,4.40
2018-09-03T00:45:54.797Z,4.50
2018-09-03T00:46:54.741Z,4.60
2018-09-03T00:47:54.701Z,4.60
2018-09-03T00:48:54.657Z,4.50
2018-09-03T00:49:54.622Z,4.70
2018-09-03T00:50:54.606Z,4.90
2018-09-03T00:51:54.541Z,4.60
2018-09-03T00:52:54.512Z,4.20
2018-09-03T00:53:54.474Z,4.50
2018-09-03T00:54:54.431Z,4.70
2018-09-03T00:55:54.436Z,4.50
2018-09-03T00:56:54.360Z,5.00
2018-09-03T00:58:04.737Z,5.00
2018-09-03T00:58:54.278Z,4.80
2018-09-03T00:59:54.235Z,4.30
2018-09-03T01:00:54.197Z,4.70
2018-09-03T01:01:54.184Z,4.80
2018-09-03T01:02:54.131Z,4.90
2018-09-03T01:03:54.092Z,4.80
2018-09-03T01:04:54.056Z,4.80
2018-09-03T01:05:54.016Z,4.80
2018-09-03T01:06:53.992Z,4.30
2018-09-03T01:07:53.931Z,4.60
2018-09-03T01:08:53.900Z,4.90
2018-09-03T01:09:53.861Z,4.80
2018-09-03T01:10:53.815Z,4.80
2018-09-03T01:11:53.797Z,5.10
2018-09-03T01:12:53.739Z,4.80
2018-09-03T01:13:53.701Z,4.70
2018-09-03T01:14:53.671Z,4.50
2018-09-03T01:15:53.634Z,4.70
2018-09-03T01:16:53.619Z,4.80
2018-09-03T01:17:53.556Z,5.00
2018-09-03T01:18:53.511Z,5.00
2018-09-03T01:19:53.471Z,4.80
2018-09-03T01:20:53.432Z,4.50
2018-09-03T01:21:53.392Z,4.90
2018-09-03T01:22:53.386Z,4.90
2018-09-03T01:23:53.321Z,4.70
2018-09-03T01:24:53.278Z,4.60
2018-09-03T01:25:53.239Z,4.60
2018-09-03T01:26:53.212Z,4.80
2018-09-03T01:27:53.196Z,5.00
2018-09-03T01:28:53.133Z,4.70
2018-09-03T01:29:53.099Z,4.70
2018-09-03T01:30:53.046Z,5.10
2018-09-03T01:31:53.021Z,4.90
2018-09-03T01:32:52.988Z,4.80
2018-09-03T01:33:52.931Z,5.00
2018-09-03T01:34:52.904Z,4.70
2018-09-03T01:35:52.863Z,4.90
2018-09-03T01:36:52.828Z,5.00
2018-09-03T01:37:52.807Z,4.90
2018-09-03T01:38:52.743Z,4.90
2018-09-03T01:39:52.704Z,5.20
2018-09-03T01:40:52.672Z,4.90
2018-09-03T01:41:52.635Z,5.00
2018-09-03T01:42:52.612Z,4.90
2018-09-03T01:43:52.552Z,5.00
2018-09-03T01:44:52.512Z,4.60
2018-09-03T01:45:52.474Z,4.90
2018-09-03T01:46:52.446Z,4.90
2018-09-03T01:47:52.432Z,5.10
2018-09-03T01:48:52.373Z,5.00
2018-09-03T01:49:52.332Z,5.30
2018-09-03T01:50:52.288Z,5.20
2018-09-03T01:51:52.248Z,4.60
2018-09-03T01:52:52.211Z,4.80
2018-09-03T01:53:52.193Z,4.80
2018-09-03T01:54:52.142Z,4.80
2018-09-03T01:55:52.102Z,5.10
2018-09-03T01:56:52.058Z,4.90
2018-09-03T01:57:52.021Z,5.00
2018-09-03T01:58:52.012Z,4.90
2018-09-03T01:59:51.949Z,5.30
2018-09-03T02:00:51.914Z,5.10
2018-09-03T02:01:51.876Z,5.20
2018-09-03T02:02:51.841Z,4.80
2018-09-03T02:03:51.813Z,4.60
2018-09-03T02:04:51.754Z,4.60
2018-09-03T02:05:51.717Z,5.10
2018-09-03T02:06:51.687Z,4.70
2018-09-03T02:07:51.651Z,5.00
2018-09-03T02:08:51.638Z,5.10
2018-09-03T02:09:51.573Z,4.70
2018-09-03T02:10:51.526Z,5.00
2018-09-03T02:11:51.497Z,4.60
2018-09-03T02:12:51.458Z,5.00
2018-09-03T02:13:51.421Z,4.70
2018-09-03T02:14:51.400Z,4.60
2018-09-03T02:15:51.341Z,4.90
2018-09-03T02:16:51.301Z,4.80
2018-09-03T02:17:51.265Z,4.80
2018-09-03T02:18:51.234Z,4.70
2018-09-03T02:19:51.216Z,4.70
2018-09-03T02:20:51.155Z,4.90
2018-09-03T02:21:51.117Z,4.80
2018-09-03T02:22:51.077Z,5.20
2018-09-03T02:23:51.039Z,4.80
2018-09-03T02:24:51.025Z,4.70
2018-09-03T02:25:50.961Z,5.10
2018-09-03T02:26:50.932Z,4.90
2018-09-03T02:27:50.892Z,5.10
2018-09-03T02:28:50.846Z,4.70
2018-09-03T02:29:50.812Z,4.50
2018-09-03T02:30:50.807Z,4.90
2018-09-03T02:31:50.742Z,4.60
2018-09-03T02:32:50.701Z,4.80
2018-09-03T02:33:50.664Z,5.30
2018-09-03T02:34:50.620Z,4.70
2018-09-03T02:36:00.307Z,5.20
2018-09-03T02:36:50.552Z,4.90
2018-09-03T02:37:50.519Z,5.00
2018-09-03T02:38:50.480Z,5.50
2018-09-03T02:39:50.438Z,5.20
2018-09-03T02:40:50.421Z,5.40
2018-09-03T02:41:50.356Z,5.10
2018-09-03T02:42:50.328Z,5.20
2018-09-03T02:43:50.288Z,5.00
2018-09-03T02:44:50.245Z,5.00
2018-09-03T02:45:50.207Z,5.30
2018-09-03T02:46:50.187Z,5.00
2018-09-03T02:47:50.132Z,5.20
2018-09-03T02:48:50.097Z,5.00
2018-09-03T02:49:50.063Z,5.00
2018-09-03T02:50:50.027Z,5.10
2018-09-03T02:51:50.007Z,5.00
2018-09-03T02:52:49.942Z,5.20
2018-09-03T02:53:49.906Z,5.00
2018-09-03T02:54:49.866Z,5.30
2018-09-03T02:55:49.827Z,5.50
2018-09-03T02:56:49.822Z,5.30
2018-09-03T02:57:49.759Z,5.40
2018-09-03T02:58:49.715Z,5.60
2018-09-03T02:59:49.676Z,5.10
2018-09-03T03:00:49.667Z,5.10
2018-09-03T03:01:49.637Z,5.00
2018-09-03T03:02:49.576Z,4.90
2018-09-03T03:03:49.534Z,5.00
2018-09-03T03:04:49.488Z,5.00
2018-09-03T03:05:49.453Z,5.10
2018-09-03T03:06:49.413Z,5.50
2018-09-03T03:07:49.396Z,4.90
2018-09-03T03:08:49.346Z,5.20
2018-09-03T03:09:49.309Z,4.90
2018-09-03T03:10:49.273Z,4.90
2018-09-03T03:11:49.304Z,5.20
2018-09-03T03:12:49.208Z,5.10
2018-09-03T03:13:49.153Z,5.00
2018-09-03T03:14:59.339Z,5.60
2018-09-03T03:15:49.075Z,5.40
2018-09-03T03:16:49.040Z,5.20
2018-09-03T03:17:49.025Z,5.40
2018-09-03T03:18:48.970Z,5.60
2018-09-03T03:19:48.932Z,4.90
2018-09-03T03:20:48.892Z,5.30
2018-09-03T03:21:48.859Z,5.70
2018-09-03T03:22:48.810Z,5.10
2018-09-03T03:23:48.793Z,5.10
2018-09-03T03:24:48.733Z,5.40
2018-09-03T03:25:48.696Z,5.50
2018-09-03T03:26:48.664Z,5.30
2018-09-03T03:27:48.628Z,5.50
2018-09-03T03:28:48.607Z,5.50
2018-09-03T03:29:48.544Z,5.30
2018-09-03T03:30:48.523Z,5.40
2018-09-03T03:31:48.477Z,5.30
2018-09-03T03:32:48.440Z,5.30
2018-09-03T03:33:48.424Z,5.20
2018-09-03T03:34:58.384Z,5.10
2018-09-03T03:35:48.321Z,5.30
2018-09-03T03:36:48.291Z,5.30
2018-09-03T03:37:48.253Z,5.30
2018-09-03T03:38:48.237Z,5.10
2018-09-03T03:39:48.176Z,5.50
2018-09-03T03:40:48.129Z,5.30
2018-09-03T03:41:48.095Z,5.50
2018-09-03T03:42:48.062Z,5.40
2018-09-03T03:43:48.049Z,5.20
2018-09-03T03:44:47.977Z,5.40
2018-09-03T03:45:47.941Z,5.50
2018-09-03T03:46:47.903Z,5.20
2018-09-03T03:47:47.866Z,5.40
2018-09-03T03:48:47.865Z,5.60
2018-09-03T03:49:47.820Z,5.60
2018-09-03T03:50:47.763Z,5.70
2018-09-03T03:51:47.721Z,5.20
2018-09-03T03:52:47.676Z,5.50
2018-09-03T03:53:47.641Z,5.60
2018-09-03T03:54:47.630Z,5.40
2018-09-03T03:55:47.564Z,5.20
2018-09-03T03:56:47.536Z,5.10
2018-09-03T03:57:47.503Z,5.50
2018-09-03T03:58:47.451Z,5.60
2018-09-03T03:59:47.411Z,5.70
2018-09-03T04:00:47.407Z,5.40
2018-09-03T04:01:47.344Z,5.60
2018-09-03T04:02:47.306Z,5.70
2018-09-03T04:03:47.294Z,5.60
2018-09-03T04:04:47.227Z,5.40
2018-09-03T04:05:47.206Z,5.10
2018-09-03T04:06:47.152Z,5.30
2018-09-03T04:07:47.111Z,5.40
2018-09-03T04:08:47.083Z,5.70
2018-09-03T04:09:47.044Z,5.60
2018-09-03T04:10:47.023Z,5.40
2018-09-03T04:11:46.963Z,5.50
2018-09-03T04:12:46.921Z,5.10
2018-09-03T04:13:46.883Z,5.50
2018-09-03T04:14:46.855Z,6.00
2018-09-03T04:15:46.838Z,5.00
2018-09-03T04:16:46.770Z,5.30
2018-09-03T04:17:46.734Z,5.40
2018-09-03T04:18:46.695Z,5.50
2018-09-03T04:19:46.658Z,5.50
2018-09-03T04:20:46.650Z,5.20
2018-09-03T04:21:46.593Z,5.40
2018-09-03T04:22:46.568Z,5.60
2018-09-03T04:23:46.515Z,5.30
2018-09-03T04:24:46.471Z,5.30
2018-09-03T04:25:46.451Z,5.40
2018-09-03T04:26:46.393Z,5.30
2018-09-03T04:27:46.354Z,5.30
2018-09-03T04:28:46.362Z,5.30
2018-09-03T04:29:46.288Z,5.40
2018-09-03T04:30:46.268Z,5.60
2018-09-03T04:31:46.205Z,5.30
2018-09-03T04:32:46.175Z,5.20
2018-09-03T04:33:46.133Z,5.80
2018-09-03T04:34:46.100Z,5.10
2018-09-03T04:35:46.061Z,5.20
2018-09-03T04:36:46.041Z,5.40
2018-09-03T04:37:45.979Z,5.60
2018-09-03T04:38:45.956Z,5.60
2018-09-03T04:39:45.906Z,5.30
2018-09-03T04:40:45.872Z,5.60
2018-09-03T04:41:45.859Z,5.50
2018-09-03T04:42:45.800Z,5.40
2018-09-03T04:43:45.758Z,5.50
2018-09-03T04:44:45.714Z,5.60
2018-09-03T04:45:45.683Z,5.40
2018-09-03T04:46:45.671Z,5.50
2018-09-03T04:47:45.613Z,5.40
2018-09-03T04:48:45.565Z,5.50
2018-09-03T04:49:45.529Z,5.50
2018-09-03T04:50:45.491Z,5.60
2018-09-03T04:51:45.455Z,6.00
2018-09-03T04:52:45.442Z,5.30
2018-09-03T04:53:45.385Z,5.60
2018-09-03T04:54:45.430Z,5.70
2018-09-03T04:55:45.308Z,5.60
2018-09-03T04:56:45.264Z,6.00
2018-09-03T04:57:45.250Z,5.00
2018-09-03T04:58:45.188Z,5.60
2018-09-03T04:59:45.149Z,5.50
2018-09-03T05:00:45.119Z,6.10
2018-09-03T05:01:45.101Z,5.80
2018-09-03T05:02:45.065Z,5.30
2018-09-03T05:03:45.003Z,5.40
2018-09-03T05:04:44.976Z,5.60
2018-09-03T05:05:44.951Z,5.70
2018-09-03T05:06:44.901Z,5.90
2018-09-03T05:07:44.907Z,5.70
2018-09-03T05:08:44.836Z,5.70
2018-09-03T05:09:44.778Z,5.60
2018-09-03T05:10:44.736Z,5.90
2018-09-03T05:11:44.721Z,5.70
2018-09-03T05:12:44.673Z,6.00
2018-09-03T05:13:44.655Z,5.60
2018-09-03T05:14:44.596Z,5.60
2018-09-03T05:15:44.560Z,5.60
2018-09-03T05:16:44.513Z,5.70
2018-09-03T05:17:44.475Z,5.30
2018-09-03T05:18:44.470Z,5.80
2018-09-03T05:19:44.406Z,5.40
2018-09-03T05:20:44.363Z,5.70
2018-09-03T05:21:44.323Z,5.80
2018-09-03T05:22:44.286Z,5.90
2018-09-03T05:23:44.278Z,5.50
2018-09-03T05:24:44.222Z,5.90
2018-09-03T05:25:44.183Z,6.10
2018-09-03T05:26:44.148Z,5.50
2018-09-03T05:27:44.106Z,5.60
2018-09-03T05:28:44.062Z,5.80
2018-09-03T05:29:44.044Z,5.30
2018-09-03T05:30:43.988Z,5.90
2018-09-03T05:31:43.949Z,5.50
2018-09-03T05:32:43.918Z,5.20
2018-09-03T05:33:43.907Z,5.80
2018-09-03T05:34:43.837Z,5.80
2018-09-03T05:35:43.802Z,5.30
2018-09-03T05:36:43.767Z,5.70
2018-09-03T05:37:43.729Z,5.60
2018-09-03T05:38:43.693Z,5.70
2018-09-03T05:39:43.678Z,5.20
2018-09-03T05:40:43.612Z,5.60
2018-09-03T05:41:43.574Z,5.60
2018-09-03T05:42:43.536Z,5.60
2018-09-03T05:43:43.653Z,5.40
2018-09-03T05:44:43.492Z,5.60
2018-09-03T05:45:43.431Z,4.80
2018-09-03T05:46:43.398Z,5.30
2018-09-03T05:47:43.356Z,5.50
2018-09-03T05:48:43.311Z,5.20
2018-09-03T05:49:43.296Z,4.80
2018-09-03T05:50:43.309Z,5.40
2018-09-03T05:51:43.210Z,4.90
2018-09-03T05:52:43.162Z,5.00
2018-09-03T05:53:43.126Z,5.10
2018-09-03T05:54:43.116Z,4.90
2018-09-03T05:55:43.051Z,4.70
2018-09-03T05:56:43.027Z,5.40
2018-09-03T05:57:42.982Z,5.10
2018-09-03T05:58:42.947Z,5.30
2018-09-03T05:59:42.944Z,5.60
2018-09-03T06:00:42.866Z,5.10
2018-09-03T06:01:42.828Z,4.80
2018-09-03T06:02:42.824Z,4.80
2018-09-03T06:03:42.755Z,4.90
2018-09-03T06:04:42.732Z,5.00
2018-09-03T06:05:42.711Z,5.20
2018-09-03T06:06:42.663Z,5.30
2018-09-03T06:07:42.606Z,4.80
2018-09-03T06:08:42.577Z,4.80
2018-09-03T06:09:42.539Z,5.20
2018-09-03T06:10:42.579Z,5.10
2018-09-03T06:11:53.836Z,5.00
2018-09-03T06:12:42.432Z,4.70
2018-09-03T06:13:42.386Z,4.80
2018-09-03T06:14:42.354Z,5.20
2018-09-03T06:15:42.344Z,5.00
2018-09-03T06:16:42.280Z,4.90
2018-09-03T06:17:42.291Z,4.60
2018-09-03T06:18:42.199Z,5.50
2018-09-03T06:19:42.163Z,5.10
2018-09-03T06:20:42.160Z,5.20
2018-09-03T06:21:42.107Z,4.80
2018-09-03T06:22:42.054Z,5.00
2018-09-03T06:23:42.018Z,4.80
2018-09-03T06:24:41.984Z,5.30
2018-09-03T06:25:41.945Z,4.90
2018-09-03T06:26:42.003Z,5.20
2018-09-03T06:27:41.881Z,4.80
2018-09-03T06:28:41.846Z,5.10
2018-09-03T06:29:41.808Z,5.00
2018-09-03T06:30:41.762Z,5.30
2018-09-03T06:31:41.749Z,5.60
2018-09-03T06:32:41.694Z,5.40
2018-09-03T06:33:41.655Z,4.90
2018-09-03T06:34:41.624Z,5.30
2018-09-03T06:35:41.588Z,5.30
2018-09-03T06:36:41.544Z,5.00
2018-09-03T06:37:41.530Z,4.70
2018-09-03T06:38:41.476Z,5.20
2018-09-03T06:39:41.441Z,4.90
2018-09-03T06:40:41.408Z,4.60
2018-09-03T06:41:41.364Z,4.90
2018-09-03T06:42:41.346Z,5.00
2018-09-03T06:43:41.286Z,5.20
2018-09-03T06:44:41.252Z,5.40
2018-09-03T06:45:41.215Z,5.10
2018-09-03T06:46:41.186Z,5.10
2018-09-03T06:47:41.168Z,4.80
2018-09-03T06:48:41.112Z,4.80
2018-09-03T06:49:41.076Z,5.20
2018-09-03T06:50:41.038Z,4.70
2018-09-03T06:51:51.516Z,5.30
2018-09-03T06:52:41.026Z,4.50
2018-09-03T06:53:40.924Z,4.90
2018-09-03T06:54:40.890Z,5.00
2018-09-03T06:55:40.850Z,5.10
2018-09-03T06:56:40.819Z,4.90
2018-09-03T06:57:40.792Z,5.30
2018-09-03T06:58:40.768Z,5.30
2018-09-03T06:59:40.735Z,4.70
2018-09-03T07:00:40.705Z,5.10
2018-09-03T07:01:40.631Z,5.40
2018-09-03T07:02:40.592Z,5.40
2018-09-03T07:03:40.578Z,5.20
2018-09-03T07:04:40.527Z,5.20
2018-09-03T07:05:40.491Z,5.20
2018-09-03T07:06:40.502Z,5.50
2018-09-03T07:07:40.409Z,5.30
2018-09-03T07:08:40.412Z,5.80
2018-09-03T07:09:40.359Z,5.00
2018-09-03T07:10:40.309Z,6.20
2018-09-03T07:11:40.270Z,5.40
2018-09-03T07:12:40.226Z,5.30
2018-09-03T07:13:40.200Z,5.80
2018-09-03T07:14:40.175Z,5.80
2018-09-03T07:15:40.120Z,5.90
2018-09-03T07:16:40.088Z,5.90
2018-09-03T07:17:40.055Z,6.30
2018-09-03T07:18:40.061Z,5.70
2018-09-03T07:19:40.004Z,5.80
2018-09-03T07:20:39.940Z,5.90
2018-09-03T07:21:39.897Z,5.50
2018-09-03T07:22:39.871Z,6.10
2018-09-03T07:23:39.833Z,5.80
2018-09-03T07:24:39.814Z,5.90
2018-09-03T07:25:39.764Z,5.40
2018-09-03T07:26:39.717Z,6.20
2018-09-03T07:27:39.682Z,5.70
2018-09-03T07:28:39.657Z,6.10
2018-09-03T07:29:39.641Z,5.80
2018-09-03T07:30:39.601Z,6.10
2018-09-03T07:31:39.544Z,5.80
2018-09-03T07:32:39.505Z,5.90
2018-09-03T07:33:39.463Z,6.10
2018-09-03T07:34:39.429Z,5.90
2018-09-03T07:35:39.438Z,5.90
2018-09-03T07:36:39.367Z,6.00
2018-09-03T07:37:39.328Z,6.20
2018-09-03T07:38:39.287Z,6.40
2018-09-03T07:39:39.249Z,6.20
2018-09-03T07:40:39.242Z,6.00
2018-09-03T07:41:39.188Z,6.40
2018-09-03T07:42:39.148Z,6.40
2018-09-03T07:43:39.111Z,6.70
2018-09-03T07:44:39.070Z,6.30
2018-09-03T07:45:39.059Z,6.60
2018-09-03T07:46:38.998Z,5.80
2018-09-03T07:47:39.017Z,6.10
2018-09-03T07:48:38.933Z,6.70
2018-09-03T07:49:38.910Z,6.20
2018-09-03T07:50:38.860Z,6.90
2018-09-03T07:51:48.582Z,6.60
2018-09-03T07:52:38.789Z,6.30
2018-09-03T07:53:38.754Z,6.50
2018-09-03T07:54:38.710Z,6.00
2018-09-03T07:55:38.676Z,6.50
2018-09-03T07:56:38.660Z,6.20
2018-09-03T07:57:38.601Z,6.80
2018-09-03T07:58:38.572Z,6.40
2018-09-03T07:59:38.534Z,6.40
2018-09-03T08:00:38.500Z,6.80
2018-09-03T08:01:38.490Z,7.40
2018-09-03T08:02:38.422Z,7.30
2018-09-03T08:03:38.380Z,7.40
2018-09-03T08:04:38.348Z,7.50
2018-09-03T08:05:38.318Z,6.90
2018-09-03T08:06:38.285Z,7.60
2018-09-03T08:07:38.269Z,8.20
2018-09-03T08:08:38.203Z,8.30
2018-09-03T08:09:38.165Z,7.80
2018-09-03T08:10:38.136Z,8.60
2018-09-03T08:11:38.105Z,8.90
2018-09-03T08:12:38.085Z,8.50
2018-09-03T08:13:38.031Z,8.20
2018-09-03T08:14:37.984Z,9.30
2018-09-03T08:15:37.949Z,8.10
2018-09-03T08:16:37.916Z,8.20
2018-09-03T08:17:37.902Z,9.10
2018-09-03T08:18:37.838Z,8.60
2018-09-03T08:19:37.798Z,9.10
2018-09-03T08:20:37.763Z,9.50
2018-09-03T08:21:37.725Z,8.60
2018-09-03T08:22:37.721Z,8.50
2018-09-03T08:23:37.658Z,8.60
2018-09-03T08:24:37.617Z,8.80
2018-09-03T08:25:37.578Z,9.40
2018-09-03T08:26:37.543Z,9.20
2018-09-03T08:27:37.507Z,9.80
2018-09-03T08:28:37.497Z,9.20
2018-09-03T08:29:37.437Z,9.70
2018-09-03T08:30:37.391Z,9.80
2018-09-03T08:31:37.355Z,9.20
2018-09-03T08:32:37.320Z,9.20
2018-09-03T08:33:37.302Z,9.30
2018-09-03T08:34:37.251Z,9.90
2018-09-03T08:35:37.238Z,10.00
2018-09-03T08:36:37.179Z,9.40
2018-09-03T08:37:37.140Z,8.80
2018-09-03T08:38:37.115Z,9.60
2018-09-03T08:39:37.055Z,9.20
2018-09-03T08:40:37.036Z,10.30
2018-09-03T08:41:36.990Z,9.90
2018-09-03T08:42:36.946Z,9.60
2018-09-03T08:43:36.954Z,10.40
2018-09-03T08:44:36.898Z,10.40
2018-09-03T08:45:36.840Z,10.20
2018-09-03T08:46:36.805Z,10.30
2018-09-03T08:47:36.767Z,10.60
2018-09-03T08:48:36.753Z,10.80
2018-09-03T08:49:36.692Z,10.20
2018-09-03T08:50:36.651Z,10.90
2018-09-03T08:51:36.613Z,11.50
2018-09-03T08:52:36.575Z,10.60
2018-09-03T08:53:36.567Z,10.90
2018-09-03T08:54:36.510Z,11.10
2018-09-03T08:55:36.473Z,11.00
2018-09-03T08:56:36.430Z,11.10
2018-09-03T08:57:36.393Z,11.50
2018-09-03T08:58:36.362Z,11.30
2018-09-03T08:59:36.346Z,11.60
2018-09-03T09:00:36.288Z,11.00
2018-09-03T09:01:36.250Z,10.90
2018-09-03T09:02:36.209Z,10.40
2018-09-03T09:03:36.175Z,10.80
2018-09-03T09:04:36.155Z,10.90
2018-09-03T09:05:36.095Z,10.10
2018-09-03T09:06:36.068Z,10.10
2018-09-03T09:07:36.029Z,10.60
2018-09-03T09:08:35.991Z,10.90
2018-09-03T09:09:35.975Z,10.80
2018-09-03T09:10:35.912Z,11.00
2018-09-03T09:11:35.939Z,10.90
2018-09-03T09:12:35.845Z,11.30
2018-09-03T09:13:35.810Z,10.90
2018-09-03T09:14:35.798Z,10.60
2018-09-03T09:15:35.728Z,10.80
2018-09-03T09:16:35.692Z,11.10
2018-09-03T09:17:35.668Z,11.20
2018-09-03T09:18:35.626Z,10.60
2018-09-03T09:19:35.588Z,10.80
2018-09-03T09:20:35.580Z,10.70
2018-09-03T09:21:35.513Z,11.80
2018-09-03T09:22:35.474Z,11.30
2018-09-03T09:23:35.434Z,11.10
2018-09-03T09:24:35.446Z,11.30
2018-09-03T09:25:35.386Z,10.90
2018-09-03T09:26:35.353Z,11.10
2018-09-03T09:27:35.295Z,10.90
2018-09-03T09:28:35.255Z,10.90
2018-09-03T09:29:35.220Z,11.30
2018-09-03T09:30:35.229Z,11.40
2018-09-03T09:31:45.635Z,11.50
2018-09-03T09:32:35.107Z,11.10
2018-09-03T09:33:35.077Z,10.80
2018-09-03T09:34:35.044Z,11.10
2018-09-03T09:35:34.996Z,11.80
2018-09-03T09:36:35.026Z,12.00
2018-09-03T09:37:34.935Z,11.50
2018-09-03T09:38:34.905Z,10.70
2018-09-03T09:39:34.861Z,11.40
2018-09-03T09:40:34.818Z,11.30
2018-09-03T09:41:34.804Z,11.90
2018-09-03T09:42:34.748Z,11.30
2018-09-03T09:43:34.716Z,12.10
2018-09-03T09:44:34.673Z,12.00
2018-09-03T09:45:34.736Z,11.70
2018-09-03T09:46:34.628Z,12.60
2018-09-03T09:47:34.571Z,12.70
2018-09-03T09:48:34.533Z,11.70
2018-09-03T09:49:34.497Z,11.40
2018-09-03T09:50:34.462Z,11.10
2018-09-03T09:51:34.451Z,11.60
2018-09-03T09:52:34.383Z,11.00
2018-09-03T09:53:34.346Z,11.30
2018-09-03T09:54:34.313Z,11.10
2018-09-03T09:55:34.282Z,11.20
2018-09-03T09:56:34.248Z,11.10
2018-09-03T09:57:34.231Z,11.70
2018-09-03T09:58:34.171Z,11.80
2018-09-03T09:59:34.134Z,10.90
2018-09-03T10:00:34.105Z,11.30
2018-09-03T10:01:34.073Z,11.30
2018-09-03T10:02:34.057Z,10.90
2018-09-03T10:03:33.997Z,12.00
2018-09-03T10:04:33.958Z,11.40
2018-09-03T10:05:33.923Z,11.30
2018-09-03T10:06:33.885Z,11.60
2018-09-03T10:07:33.879Z,11.80
2018-09-03T10:08:33.826Z,11.60
2018-09-03T10:09:33.787Z,11.20
2018-09-03T10:10:33.763Z,11.10
2018-09-03T10:11:33.724Z,10.90
2018-09-03T10:12:33.699Z,11.50
2018-09-03T10:13:33.640Z,11.20
2018-09-03T10:14:33.616Z,11.30
2018-09-03T10:15:33.581Z,10.90
2018-09-03T10:16:33.567Z,11.20
2018-09-03T10:17:33.504Z,10.90
2018-09-03T10:18:33.471Z,12.10
2018-09-03T10:19:33.436Z,11.70
2018-09-03T10:20:33.411Z,11.60
2018-09-03T10:21:33.376Z,11.60
2018-09-03T10:22:33.363Z,11.60
2018-09-03T10:23:33.305Z,11.10
2018-09-03T10:24:33.269Z,11.10
2018-09-03T10:25:33.261Z,11.80
2018-09-03T10:26:33.220Z,10.90
2018-09-03T10:27:33.160Z,11.30
2018-09-03T10:28:33.138Z,11.20
2018-09-03T10:29:33.118Z,11.50
2018-09-03T10:30:43.192Z,11.40
2018-09-03T10:31:33.044Z,10.90
2018-09-03T10:32:33.132Z,10.90
2018-09-03T10:33:32.964Z,11.10
2018-09-03T10:34:32.922Z,10.90
2018-09-03T10:35:32.927Z,10.70
2018-09-03T10:36:32.850Z,10.90
2018-09-03T10:37:32.874Z,10.90
2018-09-03T10:38:32.792Z,10.50
2018-09-03T10:39:32.756Z,10.80
2018-09-03T10:40:32.720Z,11.30
2018-09-03T10:41:32.699Z,10.80
2018-09-03T10:42:32.672Z,11.40
2018-09-03T10:43:32.622Z,11.00
2018-09-03T10:44:32.585Z,11.30
2018-09-03T10:45:32.557Z,10.80
2018-09-03T10:46:32.507Z,10.70
2018-09-03T10:47:32.560Z,11.00
2018-09-03T10:48:42.249Z,10.60
2018-09-03T10:49:32.415Z,10.50
2018-09-03T10:50:32.383Z,10.80
2018-09-03T10:51:32.347Z,10.30
2018-09-03T10:52:32.305Z,10.50
2018-09-03T10:53:32.289Z,10.40
2018-09-03T10:54:32.241Z,10.80
2018-09-03T10:55:32.205Z,9.30
2018-09-03T10:56:32.176Z,10.30
2018-09-03T10:57:32.140Z,9.60
2018-09-03T10:58:32.130Z,9.80
2018-09-03T10:59:32.065Z,9.10
2018-09-03T11:00:32.042Z,9.40
2018-09-03T11:01:32.017Z,9.80
2018-09-03T11:02:31.974Z,9.60
2018-09-03T11:03:31.943Z,9.60
2018-09-03T11:04:31.920Z,9.60
2018-09-03T11:05:31.869Z,9.20
2018-09-03T11:06:31.835Z,9.10
2018-09-03T11:07:31.799Z,10.10
2018-09-03T11:08:31.775Z,8.70
2018-09-03T11:09:31.764Z,9.30
2018-09-03T11:10:31.708Z,9.00
2018-09-03T11:11:31.708Z,8.10
2018-09-03T11:12:31.636Z,8.60
2018-09-03T11:13:31.603Z,8.10
2018-09-03T11:14:31.606Z,8.50
2018-09-03T11:15:31.545Z,9.20
2018-09-03T11:16:31.509Z,8.80
2018-09-03T11:17:31.473Z,9.00
2018-09-03T11:18:31.440Z,8.80
2018-09-03T11:19:31.405Z,9.20
2018-09-03T11:20:31.400Z,9.10
2018-09-03T11:21:31.598Z,9.60
2018-09-03T11:22:31.430Z,9.30
2018-09-03T11:23:31.280Z,8.70
2018-09-03T11:24:31.302Z,9.10
2018-09-03T11:25:31.208Z,9.20
2018-09-03T11:26:31.174Z,9.30
2018-09-03T11:27:31.145Z,9.10
2018-09-03T11:28:31.115Z,9.00
2018-09-03T11:29:31.088Z,9.10
2018-09-03T11:30:31.066Z,9.20
2018-09-03T11:31:31.010Z,9.20
2018-09-03T11:32:30.986Z,9.00
2018-09-03T11:33:30.950Z,9.30
2018-09-03T11:34:30.924Z,9.00
2018-09-03T11:35:30.908Z,9.20
2018-09-03T11:36:30.845Z,9.00
2018-09-03T11:37:30.812Z,9.40
2018-09-03T11:38:30.783Z,9.10
2018-09-03T11:39:30.750Z,8.90
2018-09-03T11:40:30.743Z,8.30
2018-09-03T11:41:30.692Z,9.00
2018-09-03T11:42:30.656Z,9.00
2018-09-03T11:43:30.624Z,9.30
2018-09-03T11:44:30.581Z,8.90
2018-09-03T11:45:30.574Z,9.10
2018-09-03T11:46:30.522Z,10.00
2018-09-03T11:47:30.494Z,9.60
2018-09-03T11:48:30.450Z,10.00
2018-09-03T11:49:30.416Z,9.10
2018-09-03T11:50:30.414Z,9.10
2018-09-03T11:51:30.355Z,9.00
2018-09-03T11:52:30.324Z,9.50
2018-09-03T11:53:30.296Z,9.20
2018-09-03T11:54:30.336Z,9.10
2018-09-03T11:55:30.228Z,8.80
2018-09-03T11:56:30.209Z,10.10
2018-09-03T11:57:30.156Z,10.00
2018-09-03T11:58:30.123Z,9.70
2018-09-03T11:59:30.088Z,9.60
2018-09-03T12:00:30.131Z,9.40
2018-09-03T12:01:30.059Z,9.50
2018-09-03T12:02:29.993Z,9.50
2018-09-03T12:03:29.961Z,10.00
2018-09-03T12:04:29.934Z,10.20
2018-09-03T12:05:29.904Z,10.90
2018-09-03T12:06:29.920Z,9.90
2018-09-03T12:07:29.857Z,10.00
2018-09-03T12:08:29.799Z,9.20
2018-09-03T12:09:29.761Z,9.90
2018-09-03T12:10:29.733Z,9.10
2018-09-03T12:11:29.724Z,9.50
2018-09-03T12:12:29.674Z,9.80
2018-09-03T12:13:29.638Z,8.90
2018-09-03T12:14:29.608Z,9.60
2018-09-03T12:15:29.581Z,10.30
2018-09-03T12:16:29.538Z,9.40
2018-09-03T12:17:29.527Z,10.10
2018-09-03T12:18:29.481Z,10.10
2018-09-03T12:19:29.455Z,10.20
2018-09-03T12:20:29.420Z,10.50
2018-09-03T12:21:29.378Z,10.20
2018-09-03T12:22:29.367Z,10.10
2018-09-03T12:23:29.314Z,10.00
2018-09-03T12:24:29.292Z,10.30
2018-09-03T12:25:29.257Z,10.10
2018-09-03T12:26:29.226Z,10.80
2018-09-03T12:27:29.221Z,10.40
2018-09-03T12:28:29.160Z,10.10
2018-09-03T12:29:29.128Z,10.10
2018-09-03T12:30:29.091Z,11.10
2018-09-03T12:31:29.057Z,11.70
2018-09-03T12:32:29.051Z,11.40
2018-09-03T12:33:29.005Z,10.70
2018-09-03T12:34:28.958Z,10.90
2018-09-03T12:35:28.923Z,10.80
2018-09-03T12:36:28.900Z,10.40
2018-09-03T12:37:28.870Z,11.40
2018-09-03T12:38:28.860Z,10.30
2018-09-03T12:39:28.802Z,9.70
2018-09-03T12:40:28.769Z,10.40
2018-09-03T12:41:28.732Z,10.20
2018-09-03T12:42:28.699Z,10.70
2018-09-03T12:43:28.693Z,10.30
2018-09-03T12:44:28.640Z,11.30
2018-09-03T12:45:28.605Z,11.20
2018-09-03T12:46:28.645Z,10.50
2018-09-03T12:47:28.541Z,9.90
2018-09-03T12:48:28.525Z,10.50
2018-09-03T12:49:28.469Z,9.90
2018-09-03T12:50:28.467Z,9.60
2018-09-03T12:51:28.423Z,10.40
2018-09-03T12:52:28.371Z,9.60
2018-09-03T12:53:28.366Z,9.90
2018-09-03T12:54:28.302Z,9.90
2018-09-03T12:55:28.271Z,10.20
2018-09-03T12:56:28.250Z,9.70
2018-09-03T12:57:28.216Z,10.20
2018-09-03T12:58:28.180Z,10.40
2018-09-03T12:59:28.184Z,11.20
2018-09-03T13:00:28.111Z,11.10
2018-09-03T13:01:28.078Z,12.00
2018-09-03T13:02:28.043Z,11.70
2018-09-03T13:03:28.012Z,11.40
2018-09-03T13:04:28.079Z,11.50
2018-09-03T13:05:27.956Z,11.20
2018-09-03T13:06:27.917Z,11.20
2018-09-03T13:07:27.938Z,11.20
2018-09-03T13:08:27.856Z,11.70
2018-09-03T13:09:27.876Z,12.80
2018-09-03T13:10:27.791Z,12.40
2018-09-03T13:11:27.756Z,11.90
2018-09-03T13:12:27.750Z,11.30